Time,TemperatureF,DewpointF,PressureIn,WindDirection,WindDirectionDegrees,WindSpeedMPH,WindSpeedGustMPH,Humidity,HourlyPrecipIn,Conditions,Clouds,dailyrainin,SoftwareType,DateUTC
2013-03-21 00:00:00,54.1,48.1,29.94,SSE,149,0.0,5.0,80,0.00,,---,0.00,VWS V14.01,2013-03-21 07:00:00,
2013-03-21 00:01:00,54.1,48.1,29.94,SSE,150,0.0,0.0,80,0.00,,---,0.00,VWS V14.01,2013-03-21 07:01:00,
2013-03-21 00:06:00,54.0,48.0,29.94,SSE,149,0.0,4.0,80,0.00,,---,0.00,VWS V14.01,2013-03-21 07:06:00,
2013-03-21 00:11:00,53.7,48.0,29.93,SSE,149,0.0,4.0,81,0.00,,---,0.00,VWS V14.01,2013-03-21 07:11:00,
2013-03-21 00:15:00,53.6,47.9,29.93,SSE,149,0.0,4.0,81,0.00,,---,0.00,VWS V14.01,2013-03-21 07:15:00,
2013-03-21 00:16:00,53.6,47.9,29.93,SSE,149,0.0,0.0,81,0.00,,---,0.00,VWS V14.01,2013-03-21 07:16:00,
2013-03-21 00:21:00,53.5,47.8,29.93,SSE,149,0.0,0.0,81,0.00,,---,0.00,VWS V14.01,2013-03-21 07:21:00,
2013-03-21 00:26:00,53.3,47.6,29.93,SSE,149,0.0,0.0,81,0.00,,---,0.00,VWS V14.01,2013-03-21 07:26:00,
2013-03-21 00:30:00,53.2,47.5,29.93,SSE,150,0.0,0.0,81,0.00,,---,0.00,VWS V14.01,2013-03-21 07:30:00,
2013-03-21 00:31:00,53.2,47.5,29.93,SSE,150,0.0,0.0,81,0.00,,---,0.00,VWS V14.01,2013-03-21 07:31:00,
2013-03-21 00:36:00,53.1,47.4,29.92,SSE,150,0.0,0.0,81,0.00,,---,0.00,VWS V14.01,2013-03-21 07:36:00,
2013-03-21 00:41:00,53.0,47.3,29.92,SSE,148,1.0,3.0,81,0.00,,---,0.00,VWS V14.01,2013-03-21 07:41:00,
2013-03-21 00:45:00,53.0,47.3,29.92,SSE,149,3.0,3.0,81,0.00,,---,0.00,VWS V14.01,2013-03-21 07:45:00,
2013-03-21 00:46:00,53.0,47.3,29.92,SSE,150,2.0,4.0,81,0.00,,---,0.00,VWS V14.01,2013-03-21 07:46:00,
2013-03-21 00:51:00,52.9,47.2,29.92,SSE,149,0.0,4.0,81,0.00,,---,0.00,VWS V14.01,2013-03-21 07:51:00,
2013-03-21 00:56:00,52.8,47.5,29.92,SSE,149,0.0,4.0,82,0.00,,---,0.00,VWS V14.01,2013-03-21 07:56:00,
2013-03-21 01:00:00,52.8,47.5,29.91,SSE,150,0.0,4.0,82,0.00,,---,0.00,VWS V14.01,2013-03-21 08:00:00,
2013-03-21 01:02:00,52.8,47.5,29.91,SE,144,2.0,3.0,82,0.00,,---,0.00,VWS V14.01,2013-03-21 08:02:00,
2013-03-21 01:07:00,52.7,47.4,29.91,SE,140,1.0,3.0,82,0.00,,---,0.00,VWS V14.01,2013-03-21 08:07:00,
2013-03-21 01:12:00,52.6,47.3,29.91,SE,140,0.0,3.0,82,0.00,,---,0.00,VWS V14.01,2013-03-21 08:12:00,
2013-03-21 01:15:00,52.6,46.9,29.91,SE,141,0.0,3.0,81,0.00,,---,0.00,VWS V14.01,2013-03-21 08:15:00,
2013-03-21 01:17:00,52.5,46.8,29.91,SE,140,0.0,0.0,81,0.00,,---,0.00,VWS V14.01,2013-03-21 08:17:00,
2013-03-21 01:22:00,52.4,46.8,29.91,SE,140,0.0,0.0,81,0.00,,---,0.00,VWS V14.01,2013-03-21 08:22:00,
2013-03-21 01:27:00,52.3,46.7,29.91,SE,140,0.0,0.0,81,0.00,,---,0.00,VWS V14.01,2013-03-21 08:27:00,
2013-03-21 01:30:00,52.2,46.5,29.91,SE,141,0.0,0.0,81,0.00,,---,0.00,VWS V14.01,2013-03-21 08:30:00,
2013-03-21 01:32:00,52.1,46.5,29.91,SE,141,0.0,0.0,81,0.00,,---,0.00,VWS V14.01,2013-03-21 08:32:00,
2013-03-21 01:37:00,52.0,46.4,29.91,SE,141,0.0,0.0,81,0.00,,---,0.00,VWS V14.01,2013-03-21 08:37:00,
2013-03-21 01:42:00,51.9,46.6,29.91,SE,141,0.0,0.0,82,0.00,,---,0.00,VWS V14.01,2013-03-21 08:42:00,
2013-03-21 01:45:00,51.9,46.6,29.91,SE,140,0.0,0.0,82,0.00,,---,0.00,VWS V14.01,2013-03-21 08:45:00,
2013-03-21 01:47:00,51.9,46.6,29.92,SE,141,0.0,0.0,82,0.00,,---,0.00,VWS V14.01,2013-03-21 08:47:00,
2013-03-21 01:52:00,51.8,46.5,29.92,SE,140,0.0,0.0,82,0.00,,---,0.00,VWS V14.01,2013-03-21 08:52:00,
2013-03-21 01:57:00,51.7,46.4,29.92,SE,140,0.0,0.0,82,0.00,,---,0.00,VWS V14.01,2013-03-21 08:57:00,
2013-03-21 02:00:00,51.7,46.4,29.92,SE,141,0.0,0.0,82,0.00,,---,0.00,VWS V14.01,2013-03-21 09:00:00,
2013-03-21 02:02:00,51.7,46.4,29.92,SE,140,0.0,0.0,82,0.00,,---,0.00,VWS V14.01,2013-03-21 09:02:00,
2013-03-21 02:07:00,51.6,46.3,29.92,SE,141,0.0,0.0,82,0.00,,---,0.00,VWS V14.01,2013-03-21 09:07:00,
2013-03-21 02:12:00,51.5,46.2,29.92,SE,141,0.0,0.0,82,0.00,,---,0.00,VWS V14.01,2013-03-21 09:12:00,
2013-03-21 02:15:00,51.5,46.2,29.92,SE,141,0.0,0.0,82,0.00,,---,0.00,VWS V14.01,2013-03-21 09:15:00,
2013-03-21 02:17:00,51.5,46.2,29.92,SE,141,0.0,0.0,82,0.00,,---,0.00,VWS V14.01,2013-03-21 09:17:00,
2013-03-21 02:22:00,51.4,46.1,29.92,SE,141,0.0,0.0,82,0.00,,---,0.00,VWS V14.01,2013-03-21 09:22:00,
2013-03-21 02:27:00,51.3,46.3,29.92,SE,140,0.0,0.0,83,0.00,,---,0.00,VWS V14.01,2013-03-21 09:27:00,
2013-03-21 02:30:00,51.4,46.4,29.92,SE,141,0.0,4.0,83,0.00,,---,0.00,VWS V14.01,2013-03-21 09:30:00,
2013-03-21 02:32:00,51.4,46.4,29.92,SE,140,0.0,0.0,83,0.00,,---,0.00,VWS V14.01,2013-03-21 09:32:00,
2013-03-21 02:37:00,51.4,46.7,29.92,SE,142,0.0,0.0,84,0.00,,---,0.00,VWS V14.01,2013-03-21 09:37:00,
2013-03-21 02:42:00,51.5,46.8,29.92,SE,141,0.0,0.0,84,0.00,,---,0.00,VWS V14.01,2013-03-21 09:42:00,
2013-03-21 02:45:00,51.5,46.8,29.91,SE,140,0.0,0.0,84,0.00,,---,0.00,VWS V14.01,2013-03-21 09:45:00,
2013-03-21 02:47:00,51.5,46.8,29.91,SE,141,0.0,0.0,84,0.00,,---,0.00,VWS V14.01,2013-03-21 09:47:00,
2013-03-21 02:52:00,51.5,46.8,29.91,SE,141,0.0,0.0,84,0.00,,---,0.00,VWS V14.01,2013-03-21 09:52:00,
2013-03-21 02:57:00,51.6,46.9,29.91,SE,142,0.0,0.0,84,0.00,,---,0.00,VWS V14.01,2013-03-21 09:57:00,
2013-03-21 03:00:00,51.5,46.8,29.91,SE,141,1.0,1.0,84,0.00,,---,0.00,VWS V14.01,2013-03-21 10:00:00,
2013-03-21 03:02:00,51.5,46.8,29.91,SE,141,2.0,3.0,84,0.00,,---,0.00,VWS V14.01,2013-03-21 10:02:00,
2013-03-21 03:07:00,51.6,46.9,29.91,SE,140,0.0,3.0,84,0.00,,---,0.00,VWS V14.01,2013-03-21 10:07:00,
2013-03-21 03:12:00,51.6,46.9,29.91,SE,140,0.0,3.0,84,0.00,,---,0.00,VWS V14.01,2013-03-21 10:12:00,
2013-03-21 03:15:00,51.5,46.8,29.90,SE,141,0.0,3.0,84,0.00,,---,0.00,VWS V14.01,2013-03-21 10:15:00,
2013-03-21 03:17:00,51.5,46.8,29.90,SE,140,0.0,0.0,84,0.00,,---,0.00,VWS V14.01,2013-03-21 10:17:00,
2013-03-21 03:22:00,51.5,46.8,29.90,SE,141,0.0,3.0,84,0.00,,---,0.00,VWS V14.01,2013-03-21 10:22:00,
2013-03-21 03:27:00,51.4,46.7,29.90,SE,141,2.0,3.0,84,0.00,,---,0.00,VWS V14.01,2013-03-21 10:27:00,
2013-03-21 03:30:00,51.4,46.7,29.90,SE,141,0.0,3.0,84,0.00,,---,0.00,VWS V14.01,2013-03-21 10:30:00,
2013-03-21 03:32:00,51.4,46.7,29.90,SE,140,0.0,0.0,84,0.00,,---,0.00,VWS V14.01,2013-03-21 10:32:00,
2013-03-21 03:45:00,51.0,46.3,29.89,North,0,0.0,0.0,84,0.00,,---,0.00,VWS V14.01,2013-03-21 10:45:00,
2013-03-21 04:00:00,50.9,46.2,29.89,SE,135,1.0,5.0,84,0.00,,---,0.00,VWS V14.01,2013-03-21 11:00:00,
2013-03-21 04:15:00,50.8,46.2,29.87,ENE,68,1.0,5.0,84,0.00,,---,0.00,VWS V14.01,2013-03-21 11:15:00,
2013-03-21 04:30:00,50.6,45.6,29.87,ENE,68,1.0,4.0,83,0.00,,---,0.00,VWS V14.01,2013-03-21 11:30:00,
2013-03-21 04:45:00,50.5,45.5,29.87,ENE,68,3.0,6.0,83,0.00,,---,0.00,VWS V14.01,2013-03-21 11:45:00,
2013-03-21 05:00:00,50.5,45.2,29.87,ENE,68,0.0,3.0,82,0.00,,---,0.00,VWS V14.01,2013-03-21 12:00:00,
2013-03-21 05:15:00,50.5,45.2,29.87,ENE,68,0.0,0.0,82,0.00,,---,0.00,VWS V14.01,2013-03-21 12:15:00,
2013-03-21 05:30:00,50.5,44.9,29.87,ENE,68,2.0,4.0,81,0.00,,---,0.00,VWS V14.01,2013-03-21 12:30:00,
2013-03-21 05:45:00,50.3,44.7,29.87,ENE,68,0.0,0.0,81,0.00,,---,0.00,VWS V14.01,2013-03-21 12:45:00,
2013-03-21 06:30:00,50.3,45.0,29.88,ENE,68,0.0,0.0,82,0.00,,---,0.00,VWS V14.01,2013-03-21 13:30:00,
2013-03-21 06:45:00,50.0,44.4,29.89,ENE,68,0.0,0.0,81,0.00,,---,0.00,VWS V14.01,2013-03-21 13:45:00,
2013-03-21 07:00:00,49.7,44.1,29.89,ENE,68,0.0,0.0,81,0.00,,---,0.00,VWS V14.01,2013-03-21 14:00:00,
2013-03-21 07:15:00,49.6,44.3,29.89,ENE,68,0.0,0.0,82,0.00,,---,0.00,VWS V14.01,2013-03-21 14:15:00,
2013-03-21 07:30:00,49.7,44.8,29.89,ENE,68,0.0,0.0,83,0.00,,---,0.00,VWS V14.01,2013-03-21 14:30:00,
2013-03-21 07:45:00,50.3,45.3,29.89,ENE,68,0.0,0.0,83,0.00,,---,0.00,VWS V14.01,2013-03-21 14:45:00,
2013-03-21 08:00:00,51.0,46.0,29.89,ENE,68,0.0,0.0,83,0.00,,---,0.00,VWS V14.01,2013-03-21 15:00:00,
2013-03-21 08:15:00,51.7,46.1,29.89,ENE,68,0.0,0.0,81,0.00,,---,0.00,VWS V14.01,2013-03-21 15:15:00,
2013-03-21 08:30:00,52.8,46.5,29.90,ENE,68,0.0,0.0,79,0.00,,---,0.00,VWS V14.01,2013-03-21 15:30:00,
2013-03-21 08:45:00,54.3,47.2,29.90,ENE,68,0.0,0.0,77,0.00,,---,0.00,VWS V14.01,2013-03-21 15:45:00,
2013-03-21 09:00:00,55.6,48.2,29.90,ENE,68,0.0,0.0,76,0.00,,---,0.00,VWS V14.01,2013-03-21 16:00:00,
2013-03-21 09:15:00,57.0,48.1,29.90,ENE,68,0.0,0.0,72,0.00,,---,0.00,VWS V14.01,2013-03-21 16:15:00,
2013-03-21 09:30:00,59.7,49.5,29.89,SSE,158,0.0,3.0,69,0.00,,---,0.00,VWS V14.01,2013-03-21 16:30:00,
2013-03-21 09:45:00,61.0,48.8,29.89,SSE,158,0.0,3.0,64,0.00,,---,0.00,VWS V14.01,2013-03-21 16:45:00,
2013-03-21 10:00:00,63.0,50.2,29.89,South,180,0.0,3.0,63,0.00,,---,0.00,VWS V14.01,2013-03-21 17:00:00,
2013-03-21 10:15:00,65.0,50.8,29.88,South,180,0.0,4.0,60,0.00,,---,0.00,VWS V14.01,2013-03-21 17:15:00,
2013-03-21 10:30:00,65.5,51.3,29.88,SW,225,1.0,6.0,60,0.00,,---,0.00,VWS V14.01,2013-03-21 17:30:00,
2013-03-21 10:45:00,65.5,51.7,29.88,SW,225,1.0,5.0,61,0.00,,---,0.00,VWS V14.01,2013-03-21 17:45:00,
2013-03-21 11:00:00,66.8,51.6,29.89,SW,225,1.0,5.0,58,0.00,,---,0.00,VWS V14.01,2013-03-21 18:00:00,
2013-03-21 11:15:00,67.2,51.0,29.88,WSW,248,2.0,6.0,56,0.00,,---,0.00,VWS V14.01,2013-03-21 18:15:00,
2013-03-21 11:30:00,67.3,52.5,29.89,SW,225,3.0,9.0,59,0.00,,---,0.00,VWS V14.01,2013-03-21 18:30:00,
2013-03-21 11:45:00,67.1,53.2,29.89,SW,225,2.0,8.0,61,0.00,,---,0.00,VWS V14.01,2013-03-21 18:45:00,
2013-03-21 12:00:00,68.2,53.3,29.88,SW,225,3.0,9.0,59,0.00,,---,0.00,VWS V14.01,2013-03-21 19:00:00,
2013-03-21 12:15:00,68.2,51.4,29.88,SW,225,2.0,9.0,55,0.00,,---,0.00,VWS V14.01,2013-03-21 19:15:00,
2013-03-21 12:30:00,68.2,51.4,29.87,SW,225,4.0,9.0,55,0.00,,---,0.00,VWS V14.01,2013-03-21 19:30:00,
2013-03-21 13:00:00,70.7,53.8,29.86,SW,236,7.0,7.0,55,0.00,,---,0.00,VWS V14.01,2013-03-21 20:00:00,
2013-03-21 13:05:00,70.5,53.6,29.87,South,176,5.0,7.0,55,0.00,,---,0.00,VWS V14.01,2013-03-21 20:05:00,
2013-03-21 13:10:00,70.7,54.7,29.86,SSW,209,4.0,9.0,57,0.00,,---,0.00,VWS V14.01,2013-03-21 20:10:00,
2013-03-21 13:15:00,70.3,54.4,29.86,WSW,241,2.0,9.0,57,0.00,,---,0.00,VWS V14.01,2013-03-21 20:15:00,
2013-03-21 13:20:00,70.3,53.9,29.86,SSW,196,0.0,6.0,56,0.00,,---,0.00,VWS V14.01,2013-03-21 20:20:00,
2013-03-21 13:25:00,70.5,54.1,29.85,WSW,247,5.0,6.0,56,0.00,,---,0.00,VWS V14.01,2013-03-21 20:25:00,
2013-03-21 13:30:00,70.3,54.8,29.85,SW,229,4.0,6.0,58,0.00,,---,0.00,VWS V14.01,2013-03-21 20:30:00,
2013-03-21 13:35:00,70.6,55.1,29.85,SW,226,3.0,7.0,58,0.00,,---,0.00,VWS V14.01,2013-03-21 20:35:00,
2013-03-21 13:40:00,70.8,54.3,29.85,WSW,258,6.0,7.0,56,0.00,,---,0.00,VWS V14.01,2013-03-21 20:40:00,
2013-03-21 13:45:00,70.6,54.2,29.85,SW,214,4.0,11.0,56,0.00,,---,0.00,VWS V14.01,2013-03-21 20:45:00,
2013-03-21 13:50:00,70.7,54.7,29.85,SSW,195,4.0,10.0,57,0.00,,---,0.00,VWS V14.01,2013-03-21 20:50:00,
2013-03-21 13:55:00,71.0,54.5,29.84,SSW,203,5.0,11.0,56,0.00,,---,0.00,VWS V14.01,2013-03-21 20:55:00,
2013-03-21 14:00:00,71.0,54.0,29.84,SW,223,5.0,11.0,55,0.00,,---,0.00,VWS V14.01,2013-03-21 21:00:00,
2013-03-21 14:05:00,70.8,52.3,29.84,South,184,4.0,9.0,52,0.00,,---,0.00,VWS V14.01,2013-03-21 21:05:00,
2013-03-21 14:10:00,71.0,54.5,29.84,SW,226,4.0,9.0,56,0.00,,---,0.00,VWS V14.01,2013-03-21 21:10:00,
2013-03-21 14:15:00,71.1,54.1,29.84,SW,226,7.0,9.0,55,0.00,,---,0.00,VWS V14.01,2013-03-21 21:15:00,
2013-03-21 14:20:00,70.8,53.8,29.84,SW,226,4.0,9.0,55,0.00,,---,0.00,VWS V14.01,2013-03-21 21:20:00,
2013-03-21 14:25:00,70.5,52.6,29.84,SW,236,6.0,11.0,53,0.00,,---,0.00,VWS V14.01,2013-03-21 21:25:00,
2013-03-21 14:30:00,70.1,54.2,29.84,SSW,206,3.0,11.0,57,0.00,,---,0.00,VWS V14.01,2013-03-21 21:30:00,
2013-03-21 14:35:00,69.9,53.5,29.84,SW,233,5.0,8.0,56,0.00,,---,0.00,VWS V14.01,2013-03-21 21:35:00,
2013-03-21 14:40:00,69.8,52.4,29.83,WSW,244,5.0,9.0,54,0.00,,---,0.00,VWS V14.01,2013-03-21 21:40:00,
2013-03-21 14:45:00,69.7,53.3,29.83,SW,223,7.0,9.0,56,0.00,,---,0.00,VWS V14.01,2013-03-21 21:45:00,
2013-03-21 14:50:00,69.8,51.4,29.83,SW,231,3.0,11.0,52,0.00,,---,0.00,VWS V14.01,2013-03-21 21:50:00,
2013-03-21 14:55:00,69.5,51.6,29.83,SW,227,0.0,11.0,53,0.00,,---,0.00,VWS V14.01,2013-03-21 21:55:00,
2013-03-21 15:00:00,69.5,51.6,29.83,WSW,257,4.0,11.0,53,0.00,,---,0.00,VWS V14.01,2013-03-21 22:00:00,
2013-03-21 15:05:00,69.4,51.5,29.83,SW,228,6.0,11.0,53,0.00,,---,0.00,VWS V14.01,2013-03-21 22:05:00,
2013-03-21 15:10:00,69.6,52.7,29.83,SW,222,3.0,11.0,55,0.00,,---,0.00,VWS V14.01,2013-03-21 22:10:00,
2013-03-21 15:15:00,70.0,53.1,29.83,SW,226,3.0,11.0,55,0.00,,---,0.00,VWS V14.01,2013-03-21 22:15:00,
2013-03-21 15:20:00,70.2,52.3,29.83,SSW,206,3.0,9.0,53,0.00,,---,0.00,VWS V14.01,2013-03-21 22:20:00,
2013-03-21 15:25:00,70.3,53.4,29.82,SW,236,3.0,9.0,55,0.00,,---,0.00,VWS V14.01,2013-03-21 22:25:00,
2013-03-21 15:30:00,70.0,52.6,29.82,South,175,3.0,9.0,54,0.00,,---,0.00,VWS V14.01,2013-03-21 22:30:00,
2013-03-21 15:35:00,69.9,53.0,29.82,SW,232,6.0,7.0,55,0.00,,---,0.00,VWS V14.01,2013-03-21 22:35:00,
2013-03-21 15:40:00,69.9,50.4,29.82,South,184,2.0,7.0,50,0.00,,---,0.00,VWS V14.01,2013-03-21 22:40:00,
2013-03-21 15:45:00,69.8,50.9,29.82,SSE,161,0.0,7.0,51,0.00,,---,0.00,VWS V14.01,2013-03-21 22:45:00,
2013-03-21 15:50:00,69.8,52.4,29.82,South,182,6.0,6.0,54,0.00,,---,0.00,VWS V14.01,2013-03-21 22:50:00,
2013-03-21 15:55:00,70.3,51.9,29.81,West,269,3.0,8.0,52,0.00,,---,0.00,VWS V14.01,2013-03-21 22:55:00,
2013-03-21 16:00:00,70.3,51.9,29.82,SSE,160,4.0,8.0,52,0.00,,---,0.00,VWS V14.01,2013-03-21 23:00:00,
2013-03-21 16:05:00,70.1,51.2,29.81,NE,37,0.0,4.0,51,0.00,,---,0.00,VWS V14.01,2013-03-21 23:05:00,
2013-03-21 16:10:00,70.1,52.2,29.81,SW,215,2.0,5.0,53,0.00,,---,0.00,VWS V14.01,2013-03-21 23:10:00,
2013-03-21 16:15:00,70.0,51.1,29.81,SW,215,0.0,0.0,51,0.00,,---,0.00,VWS V14.01,2013-03-21 23:15:00,
2013-03-21 16:20:00,70.4,50.9,29.81,SW,215,0.0,0.0,50,0.00,,---,0.00,VWS V14.01,2013-03-21 23:20:00,
2013-03-21 16:25:00,70.7,50.6,29.80,West,264,0.0,6.0,49,0.00,,---,0.00,VWS V14.01,2013-03-21 23:25:00,
2013-03-21 16:30:00,70.4,49.8,29.80,SSW,211,0.0,0.0,48,0.00,,---,0.00,VWS V14.01,2013-03-21 23:30:00,
2013-03-21 16:36:00,70.4,51.4,29.80,WSW,248,1.0,4.0,51,0.00,,---,0.00,VWS V14.01,2013-03-21 23:36:00,
2013-03-21 16:41:00,70.3,51.9,29.80,WSW,240,2.0,5.0,52,0.00,,---,0.00,VWS V14.01,2013-03-21 23:41:00,
2013-03-21 16:46:00,69.8,49.8,29.80,SW,233,3.0,4.0,49,0.00,,---,0.00,VWS V14.01,2013-03-21 23:46:00,
2013-03-21 16:51:00,69.6,51.2,29.80,WNW,290,2.0,4.0,52,0.00,,---,0.00,VWS V14.01,2013-03-21 23:51:00,
2013-03-21 16:56:00,69.4,50.5,29.80,West,281,4.0,5.0,51,0.00,,---,0.00,VWS V14.01,2013-03-21 23:56:00,
2013-03-21 17:01:00,69.4,51.5,29.79,SW,225,2.0,2.0,53,0.00,,---,0.00,VWS V14.01,2013-03-22 00:01:00,
2013-03-21 17:06:00,69.2,51.4,29.80,WSW,250,4.0,9.0,53,0.00,,---,0.00,VWS V14.01,2013-03-22 00:06:00,
2013-03-21 17:11:00,68.8,53.0,29.79,WSW,238,5.0,9.0,57,0.00,,---,0.00,VWS V14.01,2013-03-22 00:11:00,
2013-03-21 17:16:00,68.4,53.1,29.79,SW,232,1.0,4.0,58,0.00,,---,0.00,VWS V14.01,2013-03-22 00:16:00,
2013-03-21 17:21:00,68.0,52.7,29.79,SW,232,2.0,7.0,58,0.00,,---,0.00,VWS V14.01,2013-03-22 00:21:00,
2013-03-21 17:26:00,67.8,53.4,29.79,West,261,4.0,7.0,60,0.00,,---,0.00,VWS V14.01,2013-03-22 00:26:00,
2013-03-21 17:31:00,67.6,53.7,29.79,SSW,200,5.0,7.0,61,0.00,,---,0.00,VWS V14.01,2013-03-22 00:31:00,
2013-03-21 17:36:00,67.4,53.0,29.79,WSW,250,3.0,7.0,60,0.00,,---,0.00,VWS V14.01,2013-03-22 00:36:00,
2013-03-21 17:41:00,67.2,53.3,29.79,West,264,0.0,7.0,61,0.00,,---,0.00,VWS V14.01,2013-03-22 00:41:00,
2013-03-21 17:46:00,67.0,52.2,29.79,WSW,248,3.0,4.0,59,0.00,,---,0.00,VWS V14.01,2013-03-22 00:46:00,
2013-03-21 17:51:00,66.8,52.0,29.80,WSW,249,3.0,8.0,59,0.00,,---,0.00,VWS V14.01,2013-03-22 00:51:00,
2013-03-21 17:56:00,66.5,51.8,29.80,NW,325,1.0,8.0,59,0.00,,---,0.00,VWS V14.01,2013-03-22 00:56:00,
2013-03-21 18:01:00,65.9,51.2,29.80,WSW,257,2.0,6.0,59,0.00,,---,0.00,VWS V14.01,2013-03-22 01:01:00,
2013-03-21 18:06:00,65.4,51.2,29.80,WNW,286,1.0,7.0,60,0.00,,---,0.00,VWS V14.01,2013-03-22 01:06:00,
2013-03-21 18:11:00,64.9,51.6,29.80,WNW,290,2.0,7.0,62,0.00,,---,0.00,VWS V14.01,2013-03-22 01:11:00,
2013-03-21 18:16:00,64.5,51.2,29.80,West,263,2.0,2.0,62,0.00,,---,0.00,VWS V14.01,2013-03-22 01:16:00,
2013-03-21 18:21:00,64.1,51.3,29.81,West,279,1.0,6.0,63,0.00,,---,0.00,VWS V14.01,2013-03-22 01:21:00,
2013-03-21 18:26:00,63.7,50.9,29.81,West,281,2.0,6.0,63,0.00,,---,0.00,VWS V14.01,2013-03-22 01:26:00,
2013-03-21 18:31:00,63.1,50.7,29.81,NW,322,5.0,10.0,64,0.00,,---,0.00,VWS V14.01,2013-03-22 01:31:00,
2013-03-21 18:36:00,62.6,50.7,29.81,WNW,286,0.0,10.0,65,0.00,,---,0.00,VWS V14.01,2013-03-22 01:36:00,
2013-03-21 18:41:00,62.3,51.2,29.81,WSW,257,0.0,10.0,67,0.00,,---,0.00,VWS V14.01,2013-03-22 01:41:00,
2013-03-21 18:46:00,62.0,51.3,29.81,West,271,0.0,4.0,68,0.00,,---,0.00,VWS V14.01,2013-03-22 01:46:00,
2013-03-21 18:52:00,61.5,51.2,29.81,NW,305,0.0,5.0,69,0.00,,---,0.00,VWS V14.01,2013-03-22 01:52:00,
2013-03-21 18:57:00,61.1,51.2,29.81,WNW,288,0.0,5.0,70,0.00,,---,0.00,VWS V14.01,2013-03-22 01:57:00,
2013-03-21 19:02:00,60.8,51.0,29.81,WNW,288,0.0,0.0,70,0.00,,---,0.00,VWS V14.01,2013-03-22 02:02:00,
2013-03-21 19:07:00,60.5,51.1,29.81,WNW,288,0.0,1.0,71,0.00,,---,0.00,VWS V14.01,2013-03-22 02:07:00,
2013-03-21 19:12:00,60.2,50.8,29.81,WNW,288,0.0,1.0,71,0.00,,---,0.00,VWS V14.01,2013-03-22 02:12:00,
2013-03-21 19:17:00,59.9,50.5,29.81,WNW,288,0.0,0.0,71,0.00,,---,0.00,VWS V14.01,2013-03-22 02:17:00,
2013-03-21 19:22:00,59.7,51.4,29.81,South,183,1.0,5.0,74,0.00,,---,0.00,VWS V14.01,2013-03-22 02:22:00,
2013-03-21 19:27:00,59.3,51.4,29.81,South,183,2.0,5.0,75,0.00,,---,0.00,VWS V14.01,2013-03-22 02:27:00,
2013-03-21 19:32:00,59.0,51.5,29.81,South,183,0.0,1.0,76,0.00,,---,0.00,VWS V14.01,2013-03-22 02:32:00,
2013-03-21 19:37:00,58.8,51.6,29.81,South,183,0.0,1.0,77,0.00,,---,0.00,VWS V14.01,2013-03-22 02:37:00,
2013-03-21 19:42:00,58.5,51.7,29.81,South,183,0.0,1.0,78,0.00,,---,0.00,VWS V14.01,2013-03-22 02:42:00,
2013-03-21 19:47:00,58.2,51.7,29.81,South,182,0.0,0.0,79,0.00,,---,0.00,VWS V14.01,2013-03-22 02:47:00,
2013-03-21 19:52:00,58.0,51.5,29.81,South,182,0.0,0.0,79,0.00,,---,0.00,VWS V14.01,2013-03-22 02:52:00,
2013-03-21 19:57:00,57.7,51.2,29.81,South,183,0.0,0.0,79,0.00,,---,0.00,VWS V14.01,2013-03-22 02:57:00,
2013-03-21 20:02:00,57.5,51.4,29.82,South,183,0.0,0.0,80,0.00,,---,0.00,VWS V14.01,2013-03-22 03:02:00,
2013-03-21 20:07:00,57.2,51.1,29.82,South,182,0.0,0.0,80,0.00,,---,0.00,VWS V14.01,2013-03-22 03:07:00,
2013-03-21 20:12:00,57.0,50.6,29.81,South,182,0.0,0.0,79,0.00,,---,0.00,VWS V14.01,2013-03-22 03:12:00,
2013-03-21 20:17:00,56.9,50.5,29.81,South,183,0.0,0.0,79,0.00,,---,0.00,VWS V14.01,2013-03-22 03:17:00,
2013-03-21 20:22:00,56.7,50.3,29.81,South,183,0.0,0.0,79,0.00,,---,0.00,VWS V14.01,2013-03-22 03:22:00,
2013-03-21 20:27:00,56.8,50.7,29.81,South,182,0.0,0.0,80,0.00,,---,0.00,VWS V14.01,2013-03-22 03:27:00,
2013-03-21 20:32:00,56.8,50.7,29.81,South,183,0.0,0.0,80,0.00,,---,0.00,VWS V14.01,2013-03-22 03:32:00,
2013-03-21 20:37:00,56.8,50.7,29.81,South,182,0.0,0.0,80,0.00,,---,0.00,VWS V14.01,2013-03-22 03:37:00,
2013-03-21 20:42:00,56.6,50.5,29.81,South,183,0.0,0.0,80,0.00,,---,0.00,VWS V14.01,2013-03-22 03:42:00,
2013-03-21 20:47:00,56.5,50.4,29.81,South,183,0.0,0.0,80,0.00,,---,0.00,VWS V14.01,2013-03-22 03:47:00,
2013-03-21 20:52:00,56.3,50.2,29.81,South,183,0.0,0.0,80,0.00,,---,0.00,VWS V14.01,2013-03-22 03:52:00,
2013-03-21 20:57:00,56.0,49.6,29.81,South,183,0.0,0.0,79,0.00,,---,0.00,VWS V14.01,2013-03-22 03:57:00,
2013-03-21 21:00:00,55.9,49.5,29.81,South,183,0.0,0.0,79,0.00,,---,0.00,VWS V14.01,2013-03-22 04:00:00,
2013-03-21 21:01:00,55.9,49.5,29.81,South,183,0.0,0.0,79,0.00,,---,0.00,VWS V14.01,2013-03-22 04:01:00,
2013-03-21 21:06:00,55.7,49.3,29.81,South,183,0.0,0.0,79,0.00,,---,0.00,VWS V14.01,2013-03-22 04:06:00,
2013-03-21 21:11:00,55.5,49.1,29.81,South,182,0.0,0.0,79,0.00,,---,0.00,VWS V14.01,2013-03-22 04:11:00,
2013-03-21 21:16:00,55.4,49.0,29.81,South,182,0.0,0.0,79,0.00,,---,0.00,VWS V14.01,2013-03-22 04:16:00,
2013-03-21 21:21:00,55.3,48.9,29.81,SE,130,0.0,3.0,79,0.00,,---,0.00,VWS V14.01,2013-03-22 04:21:00,
2013-03-21 21:26:00,55.1,48.7,29.82,SE,126,2.0,3.0,79,0.00,,---,0.00,VWS V14.01,2013-03-22 04:26:00,
2013-03-21 21:31:00,55.1,48.7,29.82,SE,127,0.0,0.0,79,0.00,,---,0.00,VWS V14.01,2013-03-22 04:31:00,
2013-03-21 21:36:00,55.0,48.6,29.82,SE,126,0.0,0.0,79,0.00,,---,0.00,VWS V14.01,2013-03-22 04:36:00,
2013-03-21 21:41:00,54.9,48.5,29.82,SE,127,0.0,0.0,79,0.00,,---,0.00,VWS V14.01,2013-03-22 04:41:00,
2013-03-21 21:46:00,54.8,48.4,29.82,SE,126,0.0,0.0,79,0.00,,---,0.00,VWS V14.01,2013-03-22 04:46:00,
2013-03-21 21:51:00,54.7,48.7,29.82,SE,126,0.0,0.0,80,0.00,,---,0.00,VWS V14.01,2013-03-22 04:51:00,
2013-03-21 21:56:00,54.8,48.8,29.82,SE,125,0.0,0.0,80,0.00,,---,0.00,VWS V14.01,2013-03-22 04:56:00,
2013-03-21 22:01:00,54.9,49.2,29.81,SE,127,0.0,0.0,81,0.00,,---,0.00,VWS V14.01,2013-03-22 05:01:00,
2013-03-21 22:06:00,55.0,49.3,29.81,SE,126,0.0,0.0,81,0.00,,---,0.00,VWS V14.01,2013-03-22 05:06:00,
2013-03-21 22:11:00,55.0,49.0,29.81,SE,126,0.0,0.0,80,0.00,,---,0.00,VWS V14.01,2013-03-22 05:11:00,
2013-03-21 22:16:00,54.7,48.3,29.82,SE,126,1.0,3.0,79,0.00,,---,0.00,VWS V14.01,2013-03-22 05:16:00,
2013-03-21 22:21:00,54.4,48.0,29.82,SE,126,0.0,3.0,79,0.00,,---,0.00,VWS V14.01,2013-03-22 05:21:00,
2013-03-21 22:26:00,54.1,47.7,29.82,SE,127,1.0,3.0,79,0.00,,---,0.00,VWS V14.01,2013-03-22 05:26:00,
2013-03-21 22:31:00,54.0,47.6,29.82,SE,125,0.0,1.0,79,0.00,,---,0.00,VWS V14.01,2013-03-22 05:31:00,
2013-03-21 22:36:00,53.8,47.5,29.81,SE,126,0.0,2.0,79,0.00,,---,0.00,VWS V14.01,2013-03-22 05:36:00,
2013-03-21 22:41:00,53.7,47.3,29.81,SE,127,0.0,2.0,79,0.00,,---,0.00,VWS V14.01,2013-03-22 05:41:00,
2013-03-21 22:46:00,53.4,47.4,29.81,SE,127,0.0,0.0,80,0.00,,---,0.00,VWS V14.01,2013-03-22 05:46:00,
2013-03-21 22:51:00,53.2,47.2,29.81,SE,126,0.0,1.0,80,0.00,,---,0.00,VWS V14.01,2013-03-22 05:51:00,
2013-03-21 22:56:00,53.0,47.3,29.81,SE,125,0.0,1.0,81,0.00,,---,0.00,VWS V14.01,2013-03-22 05:56:00,
2013-03-21 23:02:00,52.7,47.0,29.82,SE,126,0.0,0.0,81,0.00,,---,0.00,VWS V14.01,2013-03-22 06:02:00,
2013-03-21 23:07:00,52.5,46.8,29.82,SE,126,0.0,0.0,81,0.00,,---,0.00,VWS V14.01,2013-03-22 06:07:00,
2013-03-21 23:12:00,52.4,47.1,29.82,SE,126,0.0,0.0,82,0.00,,---,0.00,VWS V14.01,2013-03-22 06:12:00,
2013-03-21 23:17:00,52.4,47.1,29.82,SE,125,0.0,0.0,82,0.00,,---,0.00,VWS V14.01,2013-03-22 06:17:00,
2013-03-21 23:22:00,52.4,47.4,29.82,SE,126,0.0,0.0,83,0.00,,---,0.00,VWS V14.01,2013-03-22 06:22:00,
2013-03-21 23:27:00,52.4,47.4,29.82,SE,126,0.0,0.0,83,0.00,,---,0.00,VWS V14.01,2013-03-22 06:27:00,
2013-03-21 23:32:00,52.4,47.4,29.82,SE,126,0.0,0.0,83,0.00,,---,0.00,VWS V14.01,2013-03-22 06:32:00,
2013-03-21 23:37:00,52.3,47.3,29.82,SE,126,0.0,0.0,83,0.00,,---,0.00,VWS V14.01,2013-03-22 06:37:00,
2013-03-21 23:42:00,52.1,47.4,29.82,SE,126,0.0,0.0,84,0.00,,---,0.00,VWS V14.01,2013-03-22 06:42:00,
2013-03-21 23:47:00,52.3,47.9,29.82,SE,125,0.0,4.0,85,0.00,,---,0.00,VWS V14.01,2013-03-22 06:47:00,
2013-03-21 23:52:00,52.4,48.3,29.81,SE,126,0.0,4.0,86,0.00,,---,0.00,VWS V14.01,2013-03-22 06:52:00,
2013-03-21 23:57:00,52.4,48.0,29.82,SE,126,0.0,4.0,85,0.00,,---,0.00,VWS V14.01,2013-03-22 06:57:00,